sensor_id;sensor_type;location;lat;lon;timestamp;temperature;humidity
4429;DHT22;2227;47.810;8.810;2022-09-17T04:31:14;10.20;99.90
4429;DHT22;2227;47.810;8.810;2022-09-17T04:33:41;10.30;99.90
4429;DHT22;2227;47.810;8.810;2022-09-17T04:36:07;10.30;99.90
4429;DHT22;2227;47.810;8.810;2022-09-17T04:38:34;10.30;99.90
4429;DHT22;2227;47.810;8.810;2022-09-17T04:41:01;10.30;99.90
4429;DHT22;2227;47.810;8.810;2022-09-17T04:43:28;10.20;99.90
4429;DHT22;2227;47.810;8.810;2022-09-17T04:45:55;10.20;99.90
4429;DHT22;2227;47.810;8.810;2022-09-17T04:48:21;10.20;99.90
4429;DHT22;2227;47.810;8.810;2022-09-17T04:50:48;10.30;99.90
4429;DHT22;2227;47.810;8.810;2022-09-17T04:53:15;10.20;99.90
4429;DHT22;2227;47.810;8.810;2022-09-17T04:55:42;10.20;99.90
4429;DHT22;2227;47.810;8.810;2022-09-17T04:58:09;10.20;99.90
4429;DHT22;2227;47.810;8.810;2022-09-17T05:00:36;10.20;99.90
4429;DHT22;2227;47.810;8.810;2022-09-17T05:03:03;10.10;99.90
4429;DHT22;2227;47.810;8.810;2022-09-17T05:05:30;10.10;99.90
4429;DHT22;2227;47.810;8.810;2022-09-17T05:07:57;10.00;99.90
4429;DHT22;2227;47.810;8.810;2022-09-17T05:10:23;9.90;99.90
4429;DHT22;2227;47.810;8.810;2022-09-17T05:12:53;9.90;99.90
4429;DHT22;2227;47.810;8.810;2022-09-17T05:15:21;9.90;99.90
4429;DHT22;2227;47.810;8.810;2022-09-17T05:17:48;9.90;99.90
4429;DHT22;2227;47.810;8.810;2022-09-17T05:20:16;9.80;99.90
4429;DHT22;2227;47.810;8.810;2022-09-17T05:22:44;9.80;99.90
4429;DHT22;2227;47.810;8.810;2022-09-17T05:25:13;9.70;99.90
4429;DHT22;2227;47.810;8.810;2022-09-17T05:27:40;9.70;99.90
4429;DHT22;2227;47.810;8.810;2022-09-17T05:30:07;9.80;99.90
4429;DHT22;2227;47.810;8.810;2022-09-17T05:32:35;9.70;99.90
4429;DHT22;2227;47.810;8.810;2022-09-17T05:35:03;9.80;99.90
4429;DHT22;2227;47.810;8.810;2022-09-17T05:37:31;9.80;99.90
4429;DHT22;2227;47.810;8.810;2022-09-17T05:39:58;9.80;99.90
4429;DHT22;2227;47.810;8.810;2022-09-17T05:42:25;9.70;99.90
4429;DHT22;2227;47.810;8.810;2022-09-17T05:44:51;9.80;99.90
4429;DHT22;2227;47.810;8.810;2022-09-17T05:47:18;9.80;99.90
4429;DHT22;2227;47.810;8.810;2022-09-17T05:49:45;9.80;99.90
4429;DHT22;2227;47.810;8.810;2022-09-17T05:52:12;9.70;99.90
4429;DHT22;2227;47.810;8.810;2022-09-17T05:54:38;9.80;99.90
4429;DHT22;2227;47.810;8.810;2022-09-17T05:57:05;9.80;99.90
4429;DHT22;2227;47.810;8.810;2022-09-17T05:59:32;9.80;99.90
4429;DHT22;2227;47.810;8.810;2022-09-17T06:01:59;9.80;99.90
4429;DHT22;2227;47.810;8.810;2022-09-17T06:08:13;10.00;99.90
4429;DHT22;2227;47.810;8.810;2022-09-17T06:10:39;10.10;99.90
4429;DHT22;2227;47.810;8.810;2022-09-17T06:13:06;10.20;99.90
4429;DHT22;2227;47.810;8.810;2022-09-17T06:15:33;10.20;99.90
4429;DHT22;2227;47.810;8.810;2022-09-17T06:18:00;10.30;99.90
4429;DHT22;2227;47.810;8.810;2022-09-17T06:20:27;10.30;99.90
4429;DHT22;2227;47.810;8.810;2022-09-17T06:22:57;10.40;99.90
4429;DHT22;2227;47.810;8.810;2022-09-17T06:25:25;10.20;99.90
4429;DHT22;2227;47.810;8.810;2022-09-17T06:27:54;10.20;99.90
4429;DHT22;2227;47.810;8.810;2022-09-17T06:30:21;10.20;99.90
4429;DHT22;2227;47.810;8.810;2022-09-17T06:32:48;10.20;99.90
4429;DHT22;2227;47.810;8.810;2022-09-17T06:35:15;10.20;99.90
4429;DHT22;2227;47.810;8.810;2022-09-17T06:37:42;10.10;99.90
4429;DHT22;2227;47.810;8.810;2022-09-17T06:40:09;10.20;99.90
4429;DHT22;2227;47.810;8.810;2022-09-17T06:42:36;10.30;99.90
4429;DHT22;2227;47.810;8.810;2022-09-17T06:45:03;10.40;99.90
4429;DHT22;2227;47.810;8.810;2022-09-17T06:47:36;10.40;99.90
4429;DHT22;2227;47.810;8.810;2022-09-17T06:50:03;10.50;99.90
4429;DHT22;2227;47.810;8.810;2022-09-17T06:52:30;10.50;99.90
4429;DHT22;2227;47.810;8.810;2022-09-17T06:54:56;10.50;99.90
4429;DHT22;2227;47.810;8.810;2022-09-17T06:57:23;10.40;99.90
4429;DHT22;2227;47.810;8.810;2022-09-17T06:59:50;10.40;99.90
4429;DHT22;2227;47.810;8.810;2022-09-17T07:02:17;10.50;99.90
4429;DHT22;2227;47.810;8.810;2022-09-17T07:04:44;10.60;99.90
4429;DHT22;2227;47.810;8.810;2022-09-17T07:07:11;10.70;99.90
4429;DHT22;2227;47.810;8.810;2022-09-17T07:09:37;10.70;99.90
4429;DHT22;2227;47.810;8.810;2022-09-17T07:12:07;10.80;99.90
4429;DHT22;2227;47.810;8.810;2022-09-17T07:14:34;11.00;99.90
4429;DHT22;2227;47.810;8.810;2022-09-17T07:17:01;11.10;99.90
4429;DHT22;2227;47.810;8.810;2022-09-17T07:19:28;11.20;99.90
4429;DHT22;2227;47.810;8.810;2022-09-17T07:21:55;11.50;99.90
4429;DHT22;2227;47.810;8.810;2022-09-17T07:24:21;11.80;99.90
4429;DHT22;2227;47.810;8.810;2022-09-17T07:26:49;11.70;99.90
4429;DHT22;2227;47.810;8.810;2022-09-17T07:29:16;11.80;99.90
4429;DHT22;2227;47.810;8.810;2022-09-17T07:31:43;12.00;99.90
4429;DHT22;2227;47.810;8.810;2022-09-17T07:34:10;12.10;99.90
4429;DHT22;2227;47.810;8.810;2022-09-17T07:36:36;12.20;99.90
4429;DHT22;2227;47.810;8.810;2022-09-17T07:39:03;12.50;99.90
4429;DHT22;2227;47.810;8.810;2022-09-17T07:41:30;12.60;99.90
4429;DHT22;2227;47.810;8.810;2022-09-17T07:43:57;12.80;99.90
4429;DHT22;2227;47.810;8.810;2022-09-17T07:46:24;13.00;99.90
4429;DHT22;2227;47.810;8.810;2022-09-17T07:48:51;12.90;99.90
4429;DHT22;2227;47.810;8.810;2022-09-17T07:51:20;12.70;99.90
4429;DHT22;2227;47.810;8.810;2022-09-17T07:53:50;12.50;99.90
4429;DHT22;2227;47.810;8.810;2022-09-17T07:56:17;12.70;99.90
4429;DHT22;2227;47.810;8.810;2022-09-17T07:58:44;12.90;99.90
4429;DHT22;2227;47.810;8.810;2022-09-17T08:01:12;12.80;99.90
4429;DHT22;2227;47.810;8.810;2022-09-17T08:03:40;13.20;99.90
4429;DHT22;2227;47.810;8.810;2022-09-17T08:06:13;13.70;99.90
4429;DHT22;2227;47.810;8.810;2022-09-17T08:08:41;14.10;99.90
4429;DHT22;2227;47.810;8.810;2022-09-17T08:11:13;14.50;99.90
4429;DHT22;2227;47.810;8.810;2022-09-17T08:13:58;15.60;99.90
4429;DHT22;2227;47.810;8.810;2022-09-17T08:16:25;16.50;99.90
4429;DHT22;2227;47.810;8.810;2022-09-17T08:18:56;16.90;99.90
4429;DHT22;2227;47.810;8.810;2022-09-17T08:21:23;16.50;99.90
4429;DHT22;2227;47.810;8.810;2022-09-17T08:23:50;16.20;99.90
4429;DHT22;2227;47.810;8.810;2022-09-17T08:26:19;15.10;99.90
4429;DHT22;2227;47.810;8.810;2022-09-17T08:28:49;14.10;99.90
4429;DHT22;2227;47.810;8.810;2022-09-17T08:31:17;14.40;99.90
4429;DHT22;2227;47.810;8.810;2022-09-17T08:33:45;14.20;99.90
4429;DHT22;2227;47.810;8.810;2022-09-17T08:36:13;13.70;99.90
4429;DHT22;2227;47.810;8.810;2022-09-17T08:38:41;13.20;99.90
4429;DHT22;2227;47.810;8.810;2022-09-17T08:44:00;12.80;99.90
4429;DHT22;2227;47.810;8.810;2022-09-17T08:46:31;13.00;99.90
4429;DHT22;2227;47.810;8.810;2022-09-17T08:49:06;12.90;99.90
4429;DHT22;2227;47.810;8.810;2022-09-17T08:51:59;12.80;99.90
4429;DHT22;2227;47.810;8.810;2022-09-17T09:00:36;12.90;99.90
4429;DHT22;2227;47.810;8.810;2022-09-17T09:06:09;14.30;99.90
4429;DHT22;2227;47.810;8.810;2022-09-17T09:09:00;14.40;99.90
4429;DHT22;2227;47.810;8.810;2022-09-17T09:11:30;14.20;99.90
4429;DHT22;2227;47.810;8.810;2022-09-17T09:14:16;14.10;99.90
4429;DHT22;2227;47.810;8.810;2022-09-17T09:16:46;13.90;99.90
4429;DHT22;2227;47.810;8.810;2022-09-17T09:19:40;14.20;99.90
4429;DHT22;2227;47.810;8.810;2022-09-17T09:22:39;15.30;99.90
4429;DHT22;2227;47.810;8.810;2022-09-17T09:25:17;16.10;99.90
4429;DHT22;2227;47.810;8.810;2022-09-17T09:28:05;16.30;99.90
4429;DHT22;2227;47.810;8.810;2022-09-17T09:33:25;15.10;99.90
4429;DHT22;2227;47.810;8.810;2022-09-17T09:35:53;14.30;99.90
4429;DHT22;2227;47.810;8.810;2022-09-17T09:43:57;14.20;99.90
4429;DHT22;2227;47.810;8.810;2022-09-17T09:49:28;14.70;99.90
4429;DHT22;2227;47.810;8.810;2022-09-17T09:58:10;14.00;99.90
4429;DHT22;2227;47.810;8.810;2022-09-17T10:00:42;13.80;99.90
4429;DHT22;2227;47.810;8.810;2022-09-17T10:03:29;14.30;99.90
4429;DHT22;2227;47.810;8.810;2022-09-17T10:06:00;14.70;99.90
4429;DHT22;2227;47.810;8.810;2022-09-17T10:08:29;14.50;99.90
4429;DHT22;2227;47.810;8.810;2022-09-17T10:13:36;14.60;99.90
4429;DHT22;2227;47.810;8.810;2022-09-17T10:18:46;14.70;99.90
4429;DHT22;2227;47.810;8.810;2022-09-17T10:21:31;14.10;99.90
4429;DHT22;2227;47.810;8.810;2022-09-17T10:24:00;13.80;99.90
4429;DHT22;2227;47.810;8.810;2022-09-17T10:26:32;13.40;99.90
4429;DHT22;2227;47.810;8.810;2022-09-17T10:29:03;13.40;99.90
4429;DHT22;2227;47.810;8.810;2022-09-17T10:31:53;13.50;99.90
4429;DHT22;2227;47.810;8.810;2022-09-17T10:36:53;13.60;99.90
4429;DHT22;2227;47.810;8.810;2022-09-17T10:42:02;13.70;99.90
4429;DHT22;2227;47.810;8.810;2022-09-17T10:44:32;13.70;99.90
4429;DHT22;2227;47.810;8.810;2022-09-17T10:47:28;13.80;99.90
4429;DHT22;2227;47.810;8.810;2022-09-17T10:50:44;14.50;99.90
4429;DHT22;2227;47.810;8.810;2022-09-17T10:52:48;15.00;99.90
4429;DHT22;2227;47.810;8.810;2022-09-17T10:58:16;17.00;99.90
4429;DHT22;2227;47.810;8.810;2022-09-17T11:00:58;17.30;99.90
4429;DHT22;2227;47.810;8.810;2022-09-17T11:23:14;17.00;99.90
4429;DHT22;2227;47.810;8.810;2022-09-17T11:25:46;15.80;99.90
4429;DHT22;2227;47.810;8.810;2022-09-17T11:39:30;12.70;99.90
4429;DHT22;2227;47.810;8.810;2022-09-17T11:42:00;12.80;99.90
4429;DHT22;2227;47.810;8.810;2022-09-17T11:44:36;13.00;99.90
4429;DHT22;2227;47.810;8.810;2022-09-17T11:50:15;13.90;99.90
4429;DHT22;2227;47.810;8.810;2022-09-17T11:55:30;14.70;99.90
4429;DHT22;2227;47.810;8.810;2022-09-17T11:58:12;15.80;99.90
4429;DHT22;2227;47.810;8.810;2022-09-17T12:00:53;16.50;99.90
4429;DHT22;2227;47.810;8.810;2022-09-17T12:03:27;17.30;99.90
4429;DHT22;2227;47.810;8.810;2022-09-17T12:06:01;17.90;99.90
4429;DHT22;2227;47.810;8.810;2022-09-17T12:14:20;17.60;99.90
4429;DHT22;2227;47.810;8.810;2022-09-17T12:16:49;17.80;99.90
4429;DHT22;2227;47.810;8.810;2022-09-17T12:19:36;18.20;99.90
4429;DHT22;2227;47.810;8.810;2022-09-17T12:22:12;18.30;99.90
4429;DHT22;2227;47.810;8.810;2022-09-17T12:24:43;18.10;99.10
4429;DHT22;2227;47.810;8.810;2022-09-17T12:27:35;17.40;99.90
4429;DHT22;2227;47.810;8.810;2022-09-17T12:41:19;18.30;96.50
4429;DHT22;2227;47.810;8.810;2022-09-17T12:44:05;18.30;95.60
4429;DHT22;2227;47.810;8.810;2022-09-17T12:46:47;18.60;95.40
4429;DHT22;2227;47.810;8.810;2022-09-17T12:52:03;19.20;94.10
4429;DHT22;2227;47.810;8.810;2022-09-17T12:54:54;18.70;94.30
4429;DHT22;2227;47.810;8.810;2022-09-17T13:00:12;17.70;96.20
4429;DHT22;2227;47.810;8.810;2022-09-17T13:02:52;16.80;98.60
4429;DHT22;2227;47.810;8.810;2022-09-17T13:05:42;16.40;99.90
4429;DHT22;2227;47.810;8.810;2022-09-17T13:11:27;15.20;99.90
4429;DHT22;2227;47.810;8.810;2022-09-17T13:16:45;14.60;99.90
4429;DHT22;2227;47.810;8.810;2022-09-17T13:22:05;14.80;99.90
4429;DHT22;2227;47.810;8.810;2022-09-17T13:24:33;15.00;99.90
4429;DHT22;2227;47.810;8.810;2022-09-17T13:27:02;15.00;99.90
4429;DHT22;2227;47.810;8.810;2022-09-17T13:29:59;15.20;99.90
4429;DHT22;2227;47.810;8.810;2022-09-17T13:40:55;15.80;99.90
4429;DHT22;2227;47.810;8.810;2022-09-17T13:43:20;15.90;99.90
4429;DHT22;2227;47.810;8.810;2022-09-17T13:48:30;16.20;99.80
4429;DHT22;2227;47.810;8.810;2022-09-17T13:53:59;16.50;98.10
4429;DHT22;2227;47.810;8.810;2022-09-17T13:56:38;16.40;97.60
4429;DHT22;2227;47.810;8.810;2022-09-17T14:09:56;18.20;92.90
4429;DHT22;2227;47.810;8.810;2022-09-17T14:17:59;17.10;93.80
4429;DHT22;2227;47.810;8.810;2022-09-17T14:20:28;17.10;93.00
4429;DHT22;2227;47.810;8.810;2022-09-17T14:22:56;17.00;93.40
4429;DHT22;2227;47.810;8.810;2022-09-17T14:25:48;16.70;93.50
4429;DHT22;2227;47.810;8.810;2022-09-17T14:31:18;16.60;94.20
4429;DHT22;2227;47.810;8.810;2022-09-17T14:33:47;16.80;93.50
4429;DHT22;2227;47.810;8.810;2022-09-17T14:36:17;16.70;94.00
4429;DHT22;2227;47.810;8.810;2022-09-17T14:38:47;16.80;94.10
4429;DHT22;2227;47.810;8.810;2022-09-17T14:41:19;16.60;94.50
4429;DHT22;2227;47.810;8.810;2022-09-17T14:43:59;16.60;95.20
4429;DHT22;2227;47.810;8.810;2022-09-17T14:46:37;16.50;94.70
4429;DHT22;2227;47.810;8.810;2022-09-17T14:49:26;16.20;94.50
4429;DHT22;2227;47.810;8.810;2022-09-17T14:51:57;16.50;95.40
4429;DHT22;2227;47.810;8.810;2022-09-17T14:54:32;16.70;96.40
4429;DHT22;2227;47.810;8.810;2022-09-17T14:59:48;16.80;96.70
4429;DHT22;2227;47.810;8.810;2022-09-17T15:02:31;16.50;96.30
4429;DHT22;2227;47.810;8.810;2022-09-17T15:04:58;16.20;97.20
4429;DHT22;2227;47.810;8.810;2022-09-17T15:07:26;15.90;98.40
4429;DHT22;2227;47.810;8.810;2022-09-17T15:09:53;15.70;99.20
4429;DHT22;2227;47.810;8.810;2022-09-17T15:12:27;15.50;99.90
4429;DHT22;2227;47.810;8.810;2022-09-17T15:14:56;15.40;99.90
4429;DHT22;2227;47.810;8.810;2022-09-17T15:17:23;15.50;97.80
4429;DHT22;2227;47.810;8.810;2022-09-17T15:19:55;15.60;96.30
4429;DHT22;2227;47.810;8.810;2022-09-17T15:22:29;16.00;96.00
4429;DHT22;2227;47.810;8.810;2022-09-17T15:25:09;16.60;94.40
4429;DHT22;2227;47.810;8.810;2022-09-17T15:27:46;16.80;92.90
4429;DHT22;2227;47.810;8.810;2022-09-17T15:32:50;17.20;92.10
4429;DHT22;2227;47.810;8.810;2022-09-17T15:35:18;17.20;91.80
4429;DHT22;2227;47.810;8.810;2022-09-17T15:37:54;16.80;92.10
4429;DHT22;2227;47.810;8.810;2022-09-17T15:40:41;16.10;93.10
4429;DHT22;2227;47.810;8.810;2022-09-17T15:45:53;15.40;94.90
4429;DHT22;2227;47.810;8.810;2022-09-17T15:51:00;15.20;96.10
4429;DHT22;2227;47.810;8.810;2022-09-17T15:53:31;15.10;96.10
4429;DHT22;2227;47.810;8.810;2022-09-17T15:56:02;15.00;96.90
4429;DHT22;2227;47.810;8.810;2022-09-17T16:06:36;14.80;97.40
4429;DHT22;2227;47.810;8.810;2022-09-17T16:09:34;14.70;97.10
4429;DHT22;2227;47.810;8.810;2022-09-17T16:11:49;14.70;97.10
4429;DHT22;2227;47.810;8.810;2022-09-17T16:14:16;14.80;97.10
4429;DHT22;2227;47.810;8.810;2022-09-17T16:16:43;15.00;96.80
4429;DHT22;2227;47.810;8.810;2022-09-17T16:19:09;15.10;96.80
4429;DHT22;2227;47.810;8.810;2022-09-17T16:21:36;15.30;96.20
4429;DHT22;2227;47.810;8.810;2022-09-17T16:24:03;15.30;95.90
4429;DHT22;2227;47.810;8.810;2022-09-17T16:26:31;15.40;96.40
4429;DHT22;2227;47.810;8.810;2022-09-17T16:29:18;15.40;95.60
4429;DHT22;2227;47.810;8.810;2022-09-17T16:31:45;15.30;96.50
4429;DHT22;2227;47.810;8.810;2022-09-17T16:34:12;15.30;96.80
4429;DHT22;2227;47.810;8.810;2022-09-17T16:36:39;15.40;96.90
4429;DHT22;2227;47.810;8.810;2022-09-17T16:39:05;15.10;96.90
4429;DHT22;2227;47.810;8.810;2022-09-17T16:41:32;14.90;97.50
4429;DHT22;2227;47.810;8.810;2022-09-17T16:43:59;14.60;97.90
4429;DHT22;2227;47.810;8.810;2022-09-17T16:46:26;14.30;98.80
4429;DHT22;2227;47.810;8.810;2022-09-17T16:48:53;14.00;99.90
4429;DHT22;2227;47.810;8.810;2022-09-17T16:51:19;13.70;99.90
4429;DHT22;2227;47.810;8.810;2022-09-17T16:53:46;13.30;99.90
4429;DHT22;2227;47.810;8.810;2022-09-17T16:56:14;13.20;99.90
4429;DHT22;2227;47.810;8.810;2022-09-17T16:58:41;13.00;99.90
4429;DHT22;2227;47.810;8.810;2022-09-17T17:01:09;12.80;99.90
4429;DHT22;2227;47.810;8.810;2022-09-17T17:03:36;12.70;99.90
4429;DHT22;2227;47.810;8.810;2022-09-17T17:06:03;12.70;99.90
4429;DHT22;2227;47.810;8.810;2022-09-17T17:08:31;12.60;99.90
4429;DHT22;2227;47.810;8.810;2022-09-17T17:10:58;12.60;99.90
4429;DHT22;2227;47.810;8.810;2022-09-17T17:13:25;12.50;99.90
4429;DHT22;2227;47.810;8.810;2022-09-17T17:15:53;12.40;99.90
4429;DHT22;2227;47.810;8.810;2022-09-17T17:18:21;12.30;99.90
4429;DHT22;2227;47.810;8.810;2022-09-17T17:20:47;12.40;99.90
4429;DHT22;2227;47.810;8.810;2022-09-17T17:23:15;12.20;99.90
4429;DHT22;2227;47.810;8.810;2022-09-17T17:25:42;12.10;99.90
4429;DHT22;2227;47.810;8.810;2022-09-17T17:28:08;12.10;99.90
4429;DHT22;2227;47.810;8.810;2022-09-17T17:30:35;12.10;99.90
4429;DHT22;2227;47.810;8.810;2022-09-17T17:33:03;12.00;99.90
4429;DHT22;2227;47.810;8.810;2022-09-17T17:35:31;12.00;99.90
4429;DHT22;2227;47.810;8.810;2022-09-17T17:37:57;11.90;99.90
4429;DHT22;2227;47.810;8.810;2022-09-17T17:40:24;11.80;99.90
4429;DHT22;2227;47.810;8.810;2022-09-17T17:42:52;11.80;99.90
4429;DHT22;2227;47.810;8.810;2022-09-17T17:45:19;11.80;99.90
4429;DHT22;2227;47.810;8.810;2022-09-17T17:47:46;11.90;99.90
4429;DHT22;2227;47.810;8.810;2022-09-17T17:50:13;11.80;99.90
4429;DHT22;2227;47.810;8.810;2022-09-17T17:52:41;11.80;99.90
4429;DHT22;2227;47.810;8.810;2022-09-17T17:55:14;11.80;99.90
4429;DHT22;2227;47.810;8.810;2022-09-17T17:57:41;11.70;99.90
4429;DHT22;2227;47.810;8.810;2022-09-17T18:00:08;11.70;99.90
4429;DHT22;2227;47.810;8.810;2022-09-17T18:02:37;11.80;99.90
4429;DHT22;2227;47.810;8.810;2022-09-17T18:05:04;11.80;99.90
4429;DHT22;2227;47.810;8.810;2022-09-17T18:07:31;11.70;99.90
4429;DHT22;2227;47.810;8.810;2022-09-17T18:09:59;11.70;99.90
4429;DHT22;2227;47.810;8.810;2022-09-17T18:12:25;11.80;99.90
4429;DHT22;2227;47.810;8.810;2022-09-17T18:14:52;11.80;99.90
4429;DHT22;2227;47.810;8.810;2022-09-17T18:17:19;11.70;99.90
4429;DHT22;2227;47.810;8.810;2022-09-17T18:19:46;11.70;99.90
4429;DHT22;2227;47.810;8.810;2022-09-17T18:22:12;11.60;99.90
4429;DHT22;2227;47.810;8.810;2022-09-17T18:24:39;11.60;99.90
4429;DHT22;2227;47.810;8.810;2022-09-17T18:27:06;11.60;99.90
4429;DHT22;2227;47.810;8.810;2022-09-17T18:29:32;11.50;99.90
4429;DHT22;2227;47.810;8.810;2022-09-17T18:31:59;11.50;99.90
4429;DHT22;2227;47.810;8.810;2022-09-17T18:34:26;11.50;99.90
4429;DHT22;2227;47.810;8.810;2022-09-17T18:36:53;11.50;99.90
4429;DHT22;2227;47.810;8.810;2022-09-17T18:39:19;11.40;99.90
4429;DHT22;2227;47.810;8.810;2022-09-17T18:42:07;11.40;99.90
4429;DHT22;2227;47.810;8.810;2022-09-17T18:44:34;11.40;99.90
4429;DHT22;2227;47.810;8.810;2022-09-17T18:47:01;11.40;99.90
4429;DHT22;2227;47.810;8.810;2022-09-17T18:49:27;11.30;99.90
4429;DHT22;2227;47.810;8.810;2022-09-17T18:51:54;11.20;99.90
4429;DHT22;2227;47.810;8.810;2022-09-17T18:54:21;11.20;99.90
4429;DHT22;2227;47.810;8.810;2022-09-17T18:56:47;11.20;99.90
4429;DHT22;2227;47.810;8.810;2022-09-17T18:59:14;11.20;99.90
4429;DHT22;2227;47.810;8.810;2022-09-17T19:01:41;11.20;99.90
4429;DHT22;2227;47.810;8.810;2022-09-17T19:04:08;11.20;99.90
4429;DHT22;2227;47.810;8.810;2022-09-17T19:06:36;11.20;99.90
4429;DHT22;2227;47.810;8.810;2022-09-17T19:09:04;11.20;99.90
4429;DHT22;2227;47.810;8.810;2022-09-17T19:11:34;11.20;99.90
4429;DHT22;2227;47.810;8.810;2022-09-17T19:14:01;11.20;99.90
4429;DHT22;2227;47.810;8.810;2022-09-17T19:16:28;11.10;99.90
4429;DHT22;2227;47.810;8.810;2022-09-17T19:18:55;11.00;99.90
4429;DHT22;2227;47.810;8.810;2022-09-17T19:21:22;11.00;99.90
4429;DHT22;2227;47.810;8.810;2022-09-17T19:23:50;11.00;99.90
4429;DHT22;2227;47.810;8.810;2022-09-17T19:26:20;10.90;99.90
4429;DHT22;2227;47.810;8.810;2022-09-17T19:28:50;11.00;99.90
4429;DHT22;2227;47.810;8.810;2022-09-17T19:31:18;11.00;99.90
4429;DHT22;2227;47.810;8.810;2022-09-17T19:33:45;10.90;99.90
4429;DHT22;2227;47.810;8.810;2022-09-17T19:36:14;10.90;99.90
4429;DHT22;2227;47.810;8.810;2022-09-17T19:38:42;10.90;99.90
4429;DHT22;2227;47.810;8.810;2022-09-17T19:41:14;10.90;99.90
4429;DHT22;2227;47.810;8.810;2022-09-17T19:43:42;10.90;99.90
4429;DHT22;2227;47.810;8.810;2022-09-17T19:46:16;10.80;99.90
4429;DHT22;2227;47.810;8.810;2022-09-17T19:49:02;10.80;99.90
4429;DHT22;2227;47.810;8.810;2022-09-17T19:51:28;10.80;99.90
4429;DHT22;2227;47.810;8.810;2022-09-17T19:53:56;10.80;99.90
4429;DHT22;2227;47.810;8.810;2022-09-17T19:56:24;10.80;99.90
4429;DHT22;2227;47.810;8.810;2022-09-17T19:58:51;10.80;99.90
4429;DHT22;2227;47.810;8.810;2022-09-17T20:01:19;10.80;99.90
4429;DHT22;2227;47.810;8.810;2022-09-17T20:03:46;10.70;99.90
4429;DHT22;2227;47.810;8.810;2022-09-17T20:06:16;10.70;99.90
4429;DHT22;2227;47.810;8.810;2022-09-17T20:08:52;10.70;99.90
4429;DHT22;2227;47.810;8.810;2022-09-17T20:11:22;10.70;99.90
4429;DHT22;2227;47.810;8.810;2022-09-17T20:13:49;10.60;99.90
4429;DHT22;2227;47.810;8.810;2022-09-17T20:16:21;10.60;99.90
4429;DHT22;2227;47.810;8.810;2022-09-17T20:18:48;10.60;99.90
4429;DHT22;2227;47.810;8.810;2022-09-17T20:21:24;10.60;99.90
4429;DHT22;2227;47.810;8.810;2022-09-17T20:23:53;10.60;99.90
4429;DHT22;2227;47.810;8.810;2022-09-17T20:26:21;10.60;99.90
4429;DHT22;2227;47.810;8.810;2022-09-17T20:28:50;10.60;99.90
4429;DHT22;2227;47.810;8.810;2022-09-17T20:31:25;10.60;99.90
4429;DHT22;2227;47.810;8.810;2022-09-17T20:33:57;10.50;99.90
4429;DHT22;2227;47.810;8.810;2022-09-17T20:36:30;10.50;99.90
4429;DHT22;2227;47.810;8.810;2022-09-17T20:38:57;10.50;99.90
4429;DHT22;2227;47.810;8.810;2022-09-17T20:41:39;10.50;99.90
4429;DHT22;2227;47.810;8.810;2022-09-17T20:44:06;10.50;99.90
4429;DHT22;2227;47.810;8.810;2022-09-17T20:46:33;10.50;99.90
4429;DHT22;2227;47.810;8.810;2022-09-17T20:49:00;10.40;99.90
4429;DHT22;2227;47.810;8.810;2022-09-17T20:51:28;10.50;99.90
4429;DHT22;2227;47.810;8.810;2022-09-17T20:53:56;10.50;99.90
4429;DHT22;2227;47.810;8.810;2022-09-17T20:56:28;10.50;99.90
4429;DHT22;2227;47.810;8.810;2022-09-17T20:59:00;10.50;99.90
4429;DHT22;2227;47.810;8.810;2022-09-17T21:01:35;10.50;99.90
4429;DHT22;2227;47.810;8.810;2022-09-17T21:04:05;10.50;99.90
4429;DHT22;2227;47.810;8.810;2022-09-17T21:06:35;10.60;99.90
4429;DHT22;2227;47.810;8.810;2022-09-17T21:09:02;10.60;99.90
4429;DHT22;2227;47.810;8.810;2022-09-17T21:11:31;10.60;99.90
4429;DHT22;2227;47.810;8.810;2022-09-17T21:13:59;10.60;99.90
4429;DHT22;2227;47.810;8.810;2022-09-17T21:16:26;10.60;99.90
4429;DHT22;2227;47.810;8.810;2022-09-17T21:18:59;10.60;99.90
4429;DHT22;2227;47.810;8.810;2022-09-17T21:21:27;10.50;99.90
4429;DHT22;2227;47.810;8.810;2022-09-17T21:23:58;10.50;99.90
4429;DHT22;2227;47.810;8.810;2022-09-17T21:26:27;10.60;99.90
4429;DHT22;2227;47.810;8.810;2022-09-17T21:28:55;10.60;99.90
4429;DHT22;2227;47.810;8.810;2022-09-17T21:31:26;10.60;99.90
4429;DHT22;2227;47.810;8.810;2022-09-17T21:34:00;10.60;99.90
4429;DHT22;2227;47.810;8.810;2022-09-17T21:36:29;10.60;99.90
4429;DHT22;2227;47.810;8.810;2022-09-17T21:39:00;10.60;99.90
4429;DHT22;2227;47.810;8.810;2022-09-17T21:41:28;10.70;99.90
4429;DHT22;2227;47.810;8.810;2022-09-17T21:43:54;10.70;99.90
4429;DHT22;2227;47.810;8.810;2022-09-17T21:46:32;10.70;99.90
4429;DHT22;2227;47.810;8.810;2022-09-17T21:49:00;10.70;99.90
4429;DHT22;2227;47.810;8.810;2022-09-17T21:51:28;10.60;99.90
4429;DHT22;2227;47.810;8.810;2022-09-17T21:53:59;10.60;99.90
4429;DHT22;2227;47.810;8.810;2022-09-17T21:56:27;10.60;99.90
4429;DHT22;2227;47.810;8.810;2022-09-17T21:58:57;10.60;99.90
4429;DHT22;2227;47.810;8.810;2022-09-17T22:01:30;10.70;99.90
4429;DHT22;2227;47.810;8.810;2022-09-17T22:03:58;10.80;99.90
4429;DHT22;2227;47.810;8.810;2022-09-17T22:06:28;10.70;99.90
4429;DHT22;2227;47.810;8.810;2022-09-17T22:08:55;10.70;99.90
4429;DHT22;2227;47.810;8.810;2022-09-17T22:11:25;10.70;99.90
4429;DHT22;2227;47.810;8.810;2022-09-17T22:13:55;10.70;99.90
4429;DHT22;2227;47.810;8.810;2022-09-17T22:16:23;10.60;99.90
4429;DHT22;2227;47.810;8.810;2022-09-17T22:18:52;10.60;99.90
4429;DHT22;2227;47.810;8.810;2022-09-17T22:21:21;10.60;99.90
4429;DHT22;2227;47.810;8.810;2022-09-17T22:23:50;10.50;99.90
4429;DHT22;2227;47.810;8.810;2022-09-17T22:26:19;10.50;99.90
4429;DHT22;2227;47.810;8.810;2022-09-17T22:28:47;10.50;99.90
4429;DHT22;2227;47.810;8.810;2022-09-17T22:31:14;10.40;99.90
4429;DHT22;2227;47.810;8.810;2022-09-17T22:33:44;10.40;99.90
4429;DHT22;2227;47.810;8.810;2022-09-17T22:36:19;10.30;99.90
4429;DHT22;2227;47.810;8.810;2022-09-17T22:38:51;10.30;99.90
4429;DHT22;2227;47.810;8.810;2022-09-17T22:41:20;10.30;99.90
4429;DHT22;2227;47.810;8.810;2022-09-17T22:43:54;10.30;99.90
4429;DHT22;2227;47.810;8.810;2022-09-17T22:46:23;10.30;99.90
4429;DHT22;2227;47.810;8.810;2022-09-17T22:48:51;10.20;99.90
4429;DHT22;2227;47.810;8.810;2022-09-17T22:51:18;10.10;99.90
4429;DHT22;2227;47.810;8.810;2022-09-17T22:53:44;10.10;99.90
4429;DHT22;2227;47.810;8.810;2022-09-17T22:56:14;10.10;99.90
4429;DHT22;2227;47.810;8.810;2022-09-17T22:58:41;10.10;99.90
4429;DHT22;2227;47.810;8.810;2022-09-17T23:01:12;10.10;99.90
4429;DHT22;2227;47.810;8.810;2022-09-17T23:03:39;10.10;99.90
4429;DHT22;2227;47.810;8.810;2022-09-17T23:06:12;10.10;99.90
4429;DHT22;2227;47.810;8.810;2022-09-17T23:08:40;10.10;99.90
4429;DHT22;2227;47.810;8.810;2022-09-17T23:11:13;10.00;99.90
4429;DHT22;2227;47.810;8.810;2022-09-17T23:13:40;10.10;99.90
4429;DHT22;2227;47.810;8.810;2022-09-17T23:16:08;10.10;99.90
4429;DHT22;2227;47.810;8.810;2022-09-17T23:18:35;10.10;99.90
4429;DHT22;2227;47.810;8.810;2022-09-17T23:21:09;10.10;99.90
4429;DHT22;2227;47.810;8.810;2022-09-17T23:23:39;10.00;99.90
4429;DHT22;2227;47.810;8.810;2022-09-17T23:26:21;10.00;99.90
4429;DHT22;2227;47.810;8.810;2022-09-17T23:28:48;10.00;99.90
